Latest Weather Observations for Wilcannia Airport

IDN60801

Issued at 12:06 pm EDT Wednesday 28 January 2015 (issued every 30 minutes, with the page automatically refreshed every 10 minutes)

About weather observations | Map of weather stations | Latest weather observations for NSW | Other Formats
Station Details ID: 046012 Name: WILCANNIA AERODROME AWS Lat: -31.52 Lon: 143.38 Height: 94.3 m
Data from the previous 72 hours. | See also: Recent months for locations in New South Wales
Date/Time
EDT
Temp
°C
App
Temp
°C
Dew
Point
Rel
Hum
%
Delta-T
°C
Wind Press
QNH
hPa
Press
MSL
hPa
Rain
since 9 am
mm
Dir
 
Spd
km/h
Gust
km/h
Spd
kts
Gust
kts
28/12:00pm 27.0 24.2 12.6 41 8.4 SSE 19 30 10 16 1010.1 1009.5 0.0
28/11:30am 26.5 24.2 12.9 43 8.0 SSE 17 26 9 14 1010.5 1009.9 0.0
28/11:00am 25.0 22.0 12.6 46 7.2 SSE 20 30 11 16 1010.5 1009.9 0.0
28/10:30am 23.9 20.2 11.6 46 7.0 SSE 22 32 12 17 1010.7 1010.1 0.0
28/10:00am 22.6 18.6 10.4 46 6.7 SSE 22 32 12 17 1010.7 1010.1 0.0
28/09:30am 21.6 17.3 9.5 46 6.5 S 22 32 12 17 1010.6 1010.0 0.0
28/09:00am 20.4 15.5 8.4 46 6.3 SSE 24 33 13 18 1010.5 1009.9 0.0
28/08:30am 19.4 14.0 8.1 48 5.9 S 26 35 14 19 1010.4 1009.8 0.0
28/08:00am 18.9 14.6 8.0 49 5.6 S 20 28 11 15 1010.1 1009.5 0.0
28/07:30am 18.1 13.8 7.8 51 5.3 S 20 30 11 16 1009.6 1009.0 0.0
28/07:00am 17.7 13.5 7.4 51 5.2 S 19 28 10 15 1009.3 1008.7 0.0
28/06:30am 18.0 13.5 6.8 48 5.6 S 20 28 11 15 1008.7 1008.1 0.0
28/06:00am 18.7 13.1 7.2 47 5.8 S 26 33 14 18 1008.1 1007.5 0.0
28/05:30am 18.8 13.3 6.0 43 6.3 S 24 32 13 17 1007.8 1007.2 0.0
28/05:00am 18.9 14.2 5.0 40 6.8 S 19 28 10 15 1007.7 1007.1 0.0
28/04:30am 18.9 14.0 3.9 37 7.1 SSW 19 24 10 13 1007.6 1007.0 0.0
28/04:00am 18.0 13.5 4.2 40 6.6 SSW 17 22 9 12 1007.6 1007.0 0.0
28/03:30am 16.3 12.3 4.7 46 5.5 SW 15 19 8 10 1007.7 1007.1 0.0
28/03:00am 15.6 12.0 4.9 49 5.1 SW 13 15 7 8 1008.2 1007.6 0.0
28/02:30am 15.8 12.2 5.1 49 5.1 SW 13 15 7 8 1008.4 1007.8 0.0
28/02:00am 16.0 12.4 5.0 48 5.2 WSW 13 15 7 8 1008.7 1008.1 0.0
28/01:30am 16.8 13.2 5.1 46 5.6 WSW 13 15 7 8 1009.0 1008.4 0.0
28/01:00am 17.2 13.6 5.2 45 5.8 WSW 13 15 7 8 1009.1 1008.5 0.0
28/12:30am 17.7 14.1 5.0 43 6.1 WSW 13 15 7 8 1009.3 1008.7 0.0
28/12:00am 18.6 15.3 4.4 39 6.8 SW 11 11 6 6 1009.4 1008.8 0.0
 
Date/Time
EDT
Temp
°C
App
Temp
°C
Dew
Point
Rel
Hum
%
Delta-T
°C
Wind Press
QNH
hPa
Press
MSL
hPa
Rain
since 9 am
mm
Dir
 
Spd
km/h
Gust
km/h
Spd
kts
Gust
kts
27/11:30pm 19.3 15.9 3.9 36 7.3 SSW 11 13 6 7 1009.6 1009.0 0.0
27/11:00pm 19.1 15.6 3.3 35 7.4 SSW 11 15 6 8 1009.6 1009.0 0.0
27/10:30pm 19.8 15.8 3.1 33 7.9 SSW 13 13 7 7 1009.6 1009.0 0.0
27/09:30pm 23.1 19.0 2.0 25 10.0 S 13 19 7 10 1009.3 1008.7 0.0
27/09:00pm 23.9 18.9 1.5 23 10.6 SSW 17 24 9 13 1008.8 1008.2 0.0
27/08:30pm 24.8 19.2 1.0 21 11.2 S 20 28 11 15 1008.5 1007.9 0.0
27/08:00pm 25.9 18.5 -1.0 17 12.3 S 28 35 15 19 1008.3 1007.7 0.0
27/07:30pm 26.7 19.4 -0.3 17 12.6 S 28 39 15 21 1008.0 1007.4 0.0
27/07:00pm 27.2 19.8 -0.8 16 13.0 S 28 43 15 23 1007.7 1007.1 0.0
27/06:30pm 27.8 20.6 0.5 17 13.0 S 28 39 15 21 1007.5 1006.9 0.0
27/06:00pm 27.7 19.7 0.5 17 13.0 S 32 54 17 29 1007.6 1007.0 0.0
27/05:58pm 28.1 20.5 0.8 17 13.1 S 30 54 16 29 1007.5 1006.9 0.0
27/05:30pm 28.1 20.7 1.6 18 12.9 S 30 44 16 24 1007.6 1007.0 0.0
27/05:20pm 28.2 21.0 0.9 17 13.1 S 28 48 15 26 1007.8 1007.2 0.0
27/05:00pm 27.8 20.6 0.5 17 13.0 S 28 37 15 20 1008.0 1007.4 0.0
27/04:30pm 27.7 19.7 0.5 17 12.9 S 32 46 17 25 1008.3 1007.7 0.0
27/04:24pm 28.0 21.2 3.0 20 12.5 S 28 46 15 25 1008.2 1007.6 0.0
27/04:00pm 28.3 21.8 2.5 19 12.8 SSW 26 43 14 23 1008.5 1007.9 0.0
27/03:30pm 27.9 21.4 2.9 20 12.4 S 26 39 14 21 1008.8 1008.2 0.0
27/03:00pm 28.0 21.7 3.7 21 12.3 S 26 37 14 20 1009.2 1008.6 0.0
27/02:30pm 27.9 21.4 2.9 20 12.4 SSW 26 41 14 22 1009.6 1009.0 0.0
27/02:00pm 27.2 20.9 3.7 22 11.8 S 26 37 14 20 1010.0 1009.4 0.0
27/01:30pm 26.7 19.8 2.6 21 11.8 S 28 39 15 21 1010.4 1009.8 0.0
27/01:15pm 26.6 19.7 2.5 21 11.8 S 28 46 15 25 1010.7 1010.1 0.0
27/01:00pm 26.5 20.5 3.1 22 11.6 S 24 37 13 20 1010.9 1010.3 0.0
27/12:30pm 26.2 20.2 3.4 23 11.3 SSE 24 39 13 21 1011.3 1010.7 0.0
27/12:00pm 25.2 18.3 2.6 23 11.0 SSE 28 44 15 24 1011.6 1011.0 0.0
27/11:30am 25.2 18.9 3.8 25 10.6 SSE 26 37 14 20 1011.8 1011.2 0.0
27/11:00am 23.6 18.0 3.5 27 9.8 SSE 22 32 12 17 1012.2 1011.6 0.0
27/10:30am 22.8 17.8 4.8 31 9.0 S 20 30 11 16 1012.3 1011.7 0.0
27/10:00am 21.5 16.0 4.1 32 8.5 S 22 33 12 18 1012.3 1011.7 0.0
27/09:30am 20.8 15.7 4.0 33 8.1 SSE 20 30 11 16 1012.5 1011.9 0.0
27/09:00am 19.9 14.3 3.6 34 7.8 SSE 22 30 12 16 1012.3 1011.7 0.0
27/08:30am 18.9 13.2 3.1 35 7.4 SSE 22 30 12 16 1012.0 1011.4 0.0
27/08:00am 17.2 12.0 2.4 37 6.7 S 19 26 10 14 1011.7 1011.1 0.0
27/07:30am 16.1 10.8 1.8 38 6.4 S 19 24 10 13 1011.4 1010.8 0.0
27/07:00am 15.4 10.9 1.9 40 6.0 S 15 22 8 12 1011.1 1010.5 0.0
27/06:30am 15.5 10.5 1.6 39 6.1 SSW 17 22 9 12 1010.8 1010.2 0.0
27/06:00am 16.0 11.1 1.7 38 6.4 S 17 22 9 12 1010.7 1010.1 0.0
27/05:30am 13.3 9.3 3.1 50 4.6 SSW 13 19 7 10 1010.5 1009.9 0.0
27/05:00am 13.6 10.1 3.4 50 4.6 SW 11 13 6 7 1010.5 1009.9 0.0
27/04:30am 16.0 11.9 2.4 40 6.1 SSW 13 17 7 9 1010.6 1010.0 0.0
27/04:00am 16.4 12.3 2.4 39 6.3 SSW 13 19 7 10 1010.5 1009.9 0.0
27/03:30am 17.2 12.7 2.4 37 6.7 SSW 15 20 8 11 1010.7 1010.1 0.0
27/03:00am 16.3 12.4 3.4 42 6.0 SSW 13 17 7 9 1010.9 1010.3 0.0
27/02:30am 15.5 12.0 3.3 44 5.6 SW 11 13 6 7 1011.1 1010.5 0.0
27/02:00am 16.6 12.7 3.3 41 6.1 SW 13 15 7 8 1011.3 1010.7 0.0
27/01:30am 17.0 13.0 2.6 38 6.6 SSW 13 13 7 7 1011.6 1011.0 0.0
27/01:00am 18.7 14.6 2.1 33 7.6 S 13 17 7 9 1011.9 1011.3 0.0
27/12:30am 19.7 15.2 2.1 31 8.1 S 15 22 8 12 1012.0 1011.4 0.0
27/12:00am 21.0 15.7 1.8 28 8.9 S 19 26 10 14 1012.0 1011.4 0.0
 
Date/Time
EDT
Temp
°C
App
Temp
°C
Dew
Point
Rel
Hum
%
Delta-T
°C
Wind Press
QNH
hPa
Press
MSL
hPa
Rain
since 9 am
mm
Dir
 
Spd
km/h
Gust
km/h
Spd
kts
Gust
kts
26/11:30pm 21.4 15.9 1.6 27 9.2 S 20 26 11 14 1011.9 1011.3 0.0
26/11:00pm 21.3 16.4 2.1 28 9.0 SSW 17 24 9 13 1011.8 1011.2 0.0
26/10:30pm 19.0 14.9 2.4 33 7.7 SSW 13 15 7 8 1011.6 1011.0 0.0
26/10:00pm 19.3 15.2 2.2 32 7.9 SSW 13 15 7 8 1011.4 1010.8 0.0
26/09:30pm 20.4 16.2 1.8 29 8.6 SSW 13 15 7 8 1011.1 1010.5 0.0
26/09:00pm 22.2 17.9 1.3 25 9.7 SSW 13 17 7 9 1011.0 1010.4 0.0
26/08:30pm 24.0 18.9 1.0 22 10.7 SSW 17 20 9 11 1010.8 1010.2 0.0
26/08:00pm 25.6 19.9 0.3 19 11.8 S 20 30 11 16 1010.5 1009.9 0.0
26/07:30pm 26.3 20.4 -0.7 17 12.4 SSW 20 33 11 18 1010.1 1009.5 0.0
26/07:00pm 27.0 20.3 -0.9 16 12.9 SSW 24 33 13 18 1009.8 1009.2 0.0
26/06:30pm 27.3 21.0 -0.7 16 13.0 SSW 22 32 12 17 1009.8 1009.2 0.0
26/06:00pm 27.9 21.3 -0.2 16 13.2 SSW 24 37 13 20 1009.7 1009.1 0.0
26/05:30pm 27.7 21.1 -0.4 16 13.2 SSW 24 39 13 21 1009.8 1009.2 0.0
26/05:00pm 28.2 21.0 0.9 17 13.1 SSW 28 41 15 22 1010.1 1009.5 0.0
26/04:30pm 28.0 21.2 0.7 17 13.1 SSW 26 37 14 20 1010.5 1009.9 0.0
26/04:00pm 28.1 22.4 3.0 20 12.5 SSW 22 37 12 20 1010.7 1010.1 0.0
26/03:30pm 27.5 21.2 1.8 19 12.5 SSE 24 37 13 20 1011.0 1010.4 0.0
26/03:00pm 27.0 20.9 2.8 21 11.9 S 24 37 13 20 1011.5 1010.9 0.0
26/02:30pm 26.3 19.7 -0.7 17 12.4 S 24 39 13 21 1011.9 1011.3 0.0
26/02:00pm 26.5 20.6 3.7 23 11.4 S 24 41 13 22 1012.5 1011.9 0.0
26/01:30pm 25.7 20.1 3.6 24 11.0 SSW 22 35 12 19 1012.9 1012.3 0.0
26/01:00pm 25.2 19.3 3.8 25 10.6 S 24 35 13 19 1013.0 1012.4 0.0
26/12:30pm 24.8 19.0 4.5 27 10.2 SSW 24 33 13 18 1013.6 1013.0 0.0
26/12:00pm 24.3 18.4 4.1 27 10.0 S 24 32 13 17 1014.2 1013.6 0.0
26/11:30am 23.8 18.1 4.7 29 9.5 S 24 33 13 18 1014.2 1013.6 0.0
26/11:00am 22.6 16.1 2.7 27 9.5 S 26 35 14 19 1014.5 1013.9 0.0
26/10:30am 22.2 15.9 3.8 30 8.9 SSE 26 37 14 20 1014.3 1013.7 0.0
26/10:00am 21.6 15.9 4.7 33 8.3 SSE 24 39 13 21 1014.2 1013.6 0.0
26/09:30am 20.3 13.9 3.1 32 8.1 S 26 35 14 19 1014.4 1013.8 0.0
26/09:00am 19.2 12.5 3.4 35 7.5 S 28 39 15 21 1014.2 1013.6 0.0
26/08:30am 18.3 12.3 3.4 37 7.0 S 24 32 13 17 1013.9 1013.3 0.0
26/08:00am 17.6 11.9 3.1 38 6.7 SSW 22 28 12 15 1013.7 1013.1 0.0
26/07:30am 16.7 11.6 3.0 40 6.3 SSW 19 24 10 13 1013.4 1012.8 0.0
26/07:00am 16.3 11.1 2.7 40 6.2 S 19 28 10 15 1012.6 1012.0 0.0
26/06:30am 16.4 11.2 2.4 39 6.3 S 19 28 10 15 1012.2 1011.6 0.0
26/06:00am 16.6 11.3 1.9 37 6.6 S 19 26 10 14 1011.8 1011.2 0.0
26/05:30am 17.1 11.8 1.9 36 6.8 S 19 24 10 13 1011.7 1011.1 0.0
26/05:00am 17.5 12.0 1.9 35 7.1 S 20 30 11 16 1011.5 1010.9 0.0
26/04:30am 17.9 12.7 2.2 35 7.2 S 19 28 10 15 1011.3 1010.7 0.0
26/04:00am 18.1 12.9 2.4 35 7.2 S 19 24 10 13 1011.1 1010.5 0.0
26/03:30am 18.9 13.5 2.7 34 7.5 S 20 28 11 15 1010.8 1010.2 0.0
26/03:00am 19.4 14.1 3.2 34 7.6 S 20 28 11 15 1010.6 1010.0 0.0
26/02:30am 19.7 14.7 3.4 34 7.7 SSW 19 26 10 14 1010.6 1010.0 0.0
26/02:00am 20.0 15.5 4.1 35 7.7 SSW 17 22 9 12 1010.5 1009.9 0.0
26/01:30am 18.6 15.0 4.8 40 6.7 SSW 13 19 7 10 1010.4 1009.8 0.0
26/01:00am 18.3 14.7 4.8 41 6.5 SSW 13 13 7 7 1010.6 1010.0 0.0
26/12:30am 18.9 15.3 5.0 40 6.8 SSW 13 17 7 9 1010.4 1009.8 0.0
26/12:00am 19.0 15.4 5.1 40 6.8 SW 13 17 7 9 1010.6 1010.0 0.0
 
Date/Time
EDT
Temp
°C
App
Temp
°C
Dew
Point
Rel
Hum
%
Delta-T
°C
Wind Press
QNH
hPa
Press
MSL
hPa
Rain
since 9 am
mm
Dir
 
Spd
km/h
Gust
km/h
Spd
kts
Gust
kts
25/11:30pm 20.1 16.0 4.2 35 7.7 SW 15 20 8 11 1010.4 1009.8 0.0
25/11:00pm 19.5 16.0 5.6 40 6.9 SW 13 15 7 8 1010.3 1009.7 0.0
25/10:30pm 20.3 16.9 5.9 39 7.2 SW 13 17 7 9 1010.1 1009.5 0.0
25/10:00pm 21.4 18.2 5.3 35 8.0 SW 11 13 6 7 1009.9 1009.3 0.0
25/09:30pm 22.9 19.3 4.9 31 9.0 SW 13 17 7 9 1009.7 1009.1 0.0
25/09:00pm 24.2 20.2 5.1 29 9.7 SSW 15 19 8 10 1009.3 1008.7 0.0
25/08:30pm 25.5 20.8 5.1 27 10.4 SW 19 24 10 13 1009.0 1008.4 0.0
25/08:00pm 27.1 21.6 4.2 23 11.6 SW 22 32 12 17 1008.7 1008.1 0.0
25/07:30pm 28.3 22.2 4.6 22 12.2 SW 26 37 14 20 1008.3 1007.7 0.0
25/07:00pm 29.1 22.6 4.6 21 12.7 SW 28 41 15 22 1008.0 1007.4 0.0
25/06:30pm 29.7 24.3 6.4 23 12.4 SW 24 35 13 19 1007.7 1007.1 0.0
25/06:00pm 30.1 25.7 7.3 24 12.4 SSW 20 33 11 18 1007.6 1007.0 0.0
25/05:30pm 30.0 25.7 7.8 25 12.2 SSW 20 33 11 18 1007.6 1007.0 0.0
25/05:00pm 30.2 26.4 9.7 28 11.6 SSW 20 32 11 17 1007.7 1007.1 0.0
25/04:30pm 29.4 24.6 9.0 28 11.4 SSW 24 39 13 21 1007.9 1007.3 0.0
25/04:00pm 30.1 26.0 10.1 29 11.4 SW 22 33 12 18 1007.9 1007.3 0.0
25/03:30pm 30.1 26.1 10.6 30 11.2 SSW 22 33 12 18 1008.2 1007.6 0.0
25/03:00pm 29.7 26.0 10.3 30 11.1 SSW 20 35 11 19 1008.2 1007.6 0.0
25/02:30pm 28.7 24.5 9.9 31 10.6 SSW 22 39 12 21 1008.5 1007.9 0.0
25/02:00pm 28.4 23.9 10.1 32 10.3 SSW 24 37 13 20 1008.8 1008.2 0.0
25/01:30pm 28.3 23.6 10.5 33 10.1 SSW 26 43 14 23 1009.0 1008.4 0.0
25/01:00pm 27.2 22.6 9.5 33 9.8 SSW 24 35 13 19 1009.1 1008.5 0.0
25/12:30pm 26.9 22.4 10.2 35 9.4 SSW 24 37 13 20 1009.4 1008.8 0.0

Other Formats:

Comma delimited format used in spreadsheet applications
http://www.bom.gov.au/fwo/IDN60801/IDN60801.95695.axf

JavaScript Object Notation format (JSON) in row-major order
http://www.bom.gov.au/fwo/IDN60801/IDN60801.95695.json